the time You need

,

KS Athlete ()

Nazionalitá:   --

Sesso:   --

Pettorale:   --

Categoria:   --

Società:   --

POS. ASSOLUTA

°

Gara

Traversata Lago di Mergozzo

Percorso

2.3 Km - Femminile

Atleti arrivati

105

DETTAGLIO PRESTAZIONE

POSIZIONE ASSOLUTA °
TEMPO TOTALE
MEDIA
CATEGORIA
POSIZIONE CATEGORIA °

Intermedi

PRESTAZIONE A CONFRONTO
ASSOLUTO

NOME Lara Gherardini
° POSIZIONE ASSOLUTA
TEMPO ASSOLUTO 00:27:44.20
MEDIA PRIMO ASSOLUTO 13,52

PRESTAZIONE A CONFRONTO
CATEGORIA

NOME Lara Gherardini
° POSIZIONE CATEGORIA
TEMPO PRIMO DI CATEGORIA 00:27:44.20
MEDIA PRIMO CATEGORIA 13,52


 
Grafico Edizioni Precedenti
Risulta una sola edizione, grafico non disponibile.
 
Pos Anno Cat PosCat Sex PosSex Tempo Media RealTime
 

 
Team
Pos Atleta Cat PosCat Tempo Media
GHERARDINI LARA OF 1 00:27:44.20 13,52
DAMNOTTI ALESSIA U14_F 1 00:27:46.90 13,53
FUSATO JAEL U14_F 2 00:28:25.60 14,13
MAGGIONI ROBERTA OF 2 00:28:52.80 14,26
BARONE ANNALISA NC 1 00:29:33.70 14,47
BONOMI ROBERTA OF 3 00:30:38.60 15,19
BRAGHIN MARTA U14_F 3 00:31:25.40 15,42
SAIBENE ELENA OF 4 00:32:05.40 16,03
BARRA CARLOTTA OF 5 00:32:17.00 16,08
10° NAVARINO LETIZIA OF 6 00:32:30.90 16,15
11° SAREDO PARODI BEATRICE OF 7 00:32:52.60 16,26
12° YAMAMOTO YUMIKO NC 2 00:33:38.00 16,49
13° GARLICK REBECCA NC 3 00:33:56.50 16,58
14° PERONGINI ORNELLA OF 8 00:34:12.20 17,06
15° DE PAOLI FEDERICA OF 9 00:34:35.10 17,17
16° GIANOLIO ADRIANA OF 10 00:35:06.50 17,33
17° PAGANI PAOLA OF 11 00:36:00.70 18,00
18° GITTO CHIARA OF 12 00:36:02.10 18,01
19° CAPRIOLI SILVIA OF 13 00:36:19.40 18,09
20° CRESPI SELENE OF 14 00:36:35.80 18,17
21° BARBIERI SARA OF 15 00:36:37.40 18,19
22° CHIONCHIO MARIA GRAZIA OF 16 00:37:15.50 18,38
23° FARE“ REBECCA U14_F 4 00:37:16.90 18,38
24° PALLARO VALENTINA OF 17 00:37:37.90 18,49
25° GALLAZZI ELENA OF 18 00:37:45.20 18,53
26° SEDAZZARI SILVIA OF 19 00:37:58.10 18,59
27° CIPRIANI CRISTINA OF 20 00:38:12.20 19,06
28° CAIRO FRANCESCA OF 21 00:38:40.80 19,20
29° CALLONI TANIA OF 22 00:38:54.50 19,27
30° BILLO ILARIA OF 23 00:38:59.10 19,30
31° TENAGLIA LAURA OF 24 00:39:03.30 19,31
32° BILLO SILVIA OF 25 00:39:05.50 19,32
33° REBUZZI DANIELA OF 26 00:39:13.70 19,37
34° GHETTI MARIACHIARA OF 27 00:39:15.60 19,37
35° GONZALES ARIAS ARIANNA U14_F 5 00:39:19.00 19,39
36° GHIRINGHELLI GABRIELLA OF 28 00:39:19.20 19,39
37° TONDINI LAURA OF 29 00:39:26.10 19,43
38° CAPRA ILENIA OF 30 00:39:30.10 19,45
39° LUPPI SONIA OF 31 00:39:51.80 19,55
40° DAL POZZO D ANNONE GUENDALINA OF 32 00:39:51.90 19,55
41° LIBERALI MARTA OF 33 00:40:12.80 20,06
42° FANCHINI ELENA OF 34 00:40:40.10 20,20
43° LEO ROBERTA OF 35 00:40:44.00 20,22
44° MATIZ ELISA OF 36 00:40:47.40 20,23
45° VACCHELLI VALENTINA OF 37 00:41:06.50 20,33
46° CARNELLI STEFANIA OF 38 00:41:14.70 20,37
47° SPREAFICO LAURA OF 39 00:41:31.80 20,45
48° DELL“ORO FRANCESCA OF 40 00:41:41.20 20,50
49° AGOSTONI ALICE OF 41 00:41:43.70 20,51
50° LOMBARDI ELENA OF 42 00:42:04.00 21,02
51° BERTOSIN SARA OF 43 00:42:10.10 21,05
52° MILEO SARA OF 44 00:42:14.50 21,07
53° SCIENDRATE SIMONA NC 4 00:42:23.60 21,12
54° GIOVANNONI PINA OF 45 00:42:27.10 21,13
55° RONCOLETTA KATIA OF 46 00:42:49.10 21,24
56° POLUZZI AMBRA OF 47 00:42:50.30 21,25
57° LOTTI MARIA CRISTINA OF 48 00:42:58.20 21,29
58° PONCINI DORA OF 49 00:43:10.80 21,35
59° BRUSTIA MARGHERITA OF 50 00:43:25.50 21,42
60° AUTIERI CRISTINA OF 51 00:43:41.90 21,50
61° SCOTTO BUSATO RAFFAELLA OF 52 00:43:44.90 21,52
62° BASSANETTI SILVIA OF 53 00:44:01.70 22,00
63° MORELLI NOEMI OF 54 00:44:19.40 22,10
64° MALIGHETTI LAURA ELISABETTA OF 55 00:44:22.40 22,11
65° DRAGHICEVICH MABEL OF 56 00:44:25.30 22,12
66° SPADA MARINA OF 57 00:44:27.50 22,14
67° BINDA ARIANNA OF 58 00:45:02.10 22,31
68° LONG FEDERICA OF 59 00:45:09.10 22,35
69° TRENTO VIRGINIA OF 60 00:45:17.30 22,38
70° MUSI LAURA OF 61 00:45:20.50 22,40
71° BRUSTIA ANNALISA OF 62 00:45:23.70 22,42
72° TRIVELLATO SARA OF 63 00:45:34.70 22,47
73° SQUIZZATO SONIA OF 64 00:45:52.50 22,56
74° BRNIAZ MORENA OF 65 00:45:58.00 22,59
75° EVANGELISTA SAMUELA OF 66 00:46:10.70 23,05
76° RUGA ALESSANDRA OF 67 00:46:13.50 23,06
77° MITTINO PATRIZIA OF 68 00:46:19.60 23,09
78° TAVERNA GABRIELLA OF 69 00:46:47.90 23,23
79° BARALDO LILIANA OF 70 00:46:48.30 23,24
80° VISCONTI SIMONA OF 71 00:47:48.80 23,54
81° GIORIA FEDERICA OF 72 00:47:49.50 23,54
82° PIGORINI ALESSANDRA OF 73 00:47:53.20 23,57
83° RAMPONI MARTINA U14_F 6 00:47:55.20 23,57
84° BATTISTELLA ELISA OF 74 00:48:20.60 24,10
85° MARCENARO PAOLA OF 75 00:48:36.20 24,18
86° TURANI MARIANNA OF 76 00:48:40.20 24,20
87° SANTAMBROGIO MARIA JACKELINE OF 77 00:48:48.50 24,24
88° RADU DELIA OF 78 00:49:16.10 24,38
89° ZAFFALON MARIA GRAZIA OF 79 00:49:50.00 24,55
90° MAURI MONICA NC 5 00:50:32.20 25,16
91° NAVA MARIELLA OF 80 00:50:42.40 25,21
92° CIRILLO GIORGIA OF 81 00:51:50.10 25,55
93° LOMBARDI NATALIA NC 6 00:55:14.50 27,37
94° PRIBYTKOVA JULIA OF 82 00:55:47.80 27,53
95° COMOTTI ELENA OF 83 00:56:50.50 28,25
96° FARINI CLAUDIA OF 84 00:57:33.70 28,46
97° TOUMANIAN IRINA OF 85 00:57:50.20 28,55
98° GRANDINETTI SARA OF 86 00:58:17.60 29,08
99° ALAMPRESE ILARIA OF 87 00:59:14.40 29,37
100° CATTANEO MARIA CARMEN NC 7 01:00:38.60 30,19
 

ELENCO GARE VISUALIZZAZIONE ESTESA

Data
Evento
Posizione
Punti
Km
Sport